sensor_id;sensor_type;location;lat;lon;timestamp;P1;durP1;ratioP1;P2;durP2;ratioP2
20306;SDS011;10312;52.434;13.206;2022-07-01T00:01:41;10.45;;;8.95;;
20306;SDS011;10312;52.434;13.206;2022-07-01T00:04:08;10.70;;;9.27;;
20306;SDS011;10312;52.434;13.206;2022-07-01T00:06:35;12.30;;;8.73;;
20306;SDS011;10312;52.434;13.206;2022-07-01T00:09:03;10.52;;;9.27;;
20306;SDS011;10312;52.434;13.206;2022-07-01T00:11:31;11.32;;;9.35;;
20306;SDS011;10312;52.434;13.206;2022-07-01T00:13:58;10.55;;;8.80;;
20306;SDS011;10312;52.434;13.206;2022-07-01T00:16:25;11.00;;;9.38;;
20306;SDS011;10312;52.434;13.206;2022-07-01T00:18:51;11.75;;;9.50;;
20306;SDS011;10312;52.434;13.206;2022-07-01T00:21:18;11.27;;;9.45;;
20306;SDS011;10312;52.434;13.206;2022-07-01T00:23:45;10.05;;;9.05;;
20306;SDS011;10312;52.434;13.206;2022-07-01T00:26:12;10.48;;;8.95;;
20306;SDS011;10312;52.434;13.206;2022-07-01T00:28:38;11.68;;;9.52;;
20306;SDS011;10312;52.434;13.206;2022-07-01T00:31:06;11.30;;;9.15;;
20306;SDS011;10312;52.434;13.206;2022-07-01T00:33:32;12.85;;;9.18;;
20306;SDS011;10312;52.434;13.206;2022-07-01T00:36:00;10.10;;;9.00;;
20306;SDS011;10312;52.434;13.206;2022-07-01T00:38:27;10.00;;;9.00;;
20306;SDS011;10312;52.434;13.206;2022-07-01T00:40:54;11.48;;;9.15;;
20306;SDS011;10312;52.434;13.206;2022-07-01T00:43:21;13.63;;;9.48;;
20306;SDS011;10312;52.434;13.206;2022-07-01T00:46:12;10.50;;;8.80;;
20306;SDS011;10312;52.434;13.206;2022-07-01T00:48:39;12.18;;;9.02;;
20306;SDS011;10312;52.434;13.206;2022-07-01T00:51:06;13.15;;;9.70;;
20306;SDS011;10312;52.434;13.206;2022-07-01T00:53:33;11.73;;;9.82;;
20306;SDS011;10312;52.434;13.206;2022-07-01T00:56:00;11.52;;;9.88;;
20306;SDS011;10312;52.434;13.206;2022-07-01T00:58:27;12.82;;;10.60;;
20306;SDS011;10312;52.434;13.206;2022-07-01T01:00:55;14.02;;;10.07;;
20306;SDS011;10312;52.434;13.206;2022-07-01T01:03:23;13.75;;;10.00;;
20306;SDS011;10312;52.434;13.206;2022-07-01T01:05:50;11.00;;;9.77;;
20306;SDS011;10312;52.434;13.206;2022-07-01T01:08:18;10.85;;;9.68;;
20306;SDS011;10312;52.434;13.206;2022-07-01T01:10:45;12.18;;;10.45;;
20306;SDS011;10312;52.434;13.206;2022-07-01T01:13:12;11.65;;;10.00;;
20306;SDS011;10312;52.434;13.206;2022-07-01T01:15:39;12.60;;;9.93;;
20306;SDS011;10312;52.434;13.206;2022-07-01T01:18:06;14.05;;;10.88;;
20306;SDS011;10312;52.434;13.206;2022-07-01T01:20:36;14.00;;;10.30;;
20306;SDS011;10312;52.434;13.206;2022-07-01T01:23:04;14.15;;;11.07;;
20306;SDS011;10312;52.434;13.206;2022-07-01T01:25:33;14.15;;;10.60;;
20306;SDS011;10312;52.434;13.206;2022-07-01T01:28:00;13.02;;;9.55;;
20306;SDS011;10312;52.434;13.206;2022-07-01T01:30:27;11.38;;;9.95;;
20306;SDS011;10312;52.434;13.206;2022-07-01T01:32:54;12.40;;;10.88;;
20306;SDS011;10312;52.434;13.206;2022-07-01T01:35:21;11.93;;;10.73;;
20306;SDS011;10312;52.434;13.206;2022-07-01T01:37:48;13.25;;;10.98;;
20306;SDS011;10312;52.434;13.206;2022-07-01T01:40:15;13.98;;;9.93;;
20306;SDS011;10312;52.434;13.206;2022-07-01T01:42:43;13.40;;;11.07;;
20306;SDS011;10312;52.434;13.206;2022-07-01T01:45:10;13.27;;;11.55;;
20306;SDS011;10312;52.434;13.206;2022-07-01T01:47:38;15.68;;;11.25;;
20306;SDS011;10312;52.434;13.206;2022-07-01T01:50:05;14.10;;;10.88;;
20306;SDS011;10312;52.434;13.206;2022-07-01T01:52:33;16.60;;;11.65;;
20306;SDS011;10312;52.434;13.206;2022-07-01T01:55:00;14.75;;;11.48;;
20306;SDS011;10312;52.434;13.206;2022-07-01T01:57:27;13.15;;;11.13;;
20306;SDS011;10312;52.434;13.206;2022-07-01T01:59:54;14.93;;;11.68;;
20306;SDS011;10312;52.434;13.206;2022-07-01T02:02:24;14.80;;;11.07;;
20306;SDS011;10312;52.434;13.206;2022-07-01T02:04:51;13.68;;;12.20;;
20306;SDS011;10312;52.434;13.206;2022-07-01T02:07:17;15.23;;;11.88;;
20306;SDS011;10312;52.434;13.206;2022-07-01T02:09:44;14.48;;;12.00;;
20306;SDS011;10312;52.434;13.206;2022-07-01T02:12:11;17.70;;;13.10;;
20306;SDS011;10312;52.434;13.206;2022-07-01T02:14:38;14.25;;;12.38;;
20306;SDS011;10312;52.434;13.206;2022-07-01T02:17:06;14.68;;;13.13;;
20306;SDS011;10312;52.434;13.206;2022-07-01T02:19:32;14.85;;;12.88;;
20306;SDS011;10312;52.434;13.206;2022-07-01T02:21:59;17.48;;;12.80;;
20306;SDS011;10312;52.434;13.206;2022-07-01T02:24:26;18.05;;;13.70;;
20306;SDS011;10312;52.434;13.206;2022-07-01T02:26:53;16.40;;;12.55;;
20306;SDS011;10312;52.434;13.206;2022-07-01T02:29:20;13.90;;;12.45;;
20306;SDS011;10312;52.434;13.206;2022-07-01T02:31:47;17.23;;;12.93;;
20306;SDS011;10312;52.434;13.206;2022-07-01T02:34:14;16.23;;;12.68;;
20306;SDS011;10312;52.434;13.206;2022-07-01T02:36:40;15.23;;;13.35;;
20306;SDS011;10312;52.434;13.206;2022-07-01T02:39:07;18.02;;;13.93;;
20306;SDS011;10312;52.434;13.206;2022-07-01T02:41:34;16.10;;;13.27;;
20306;SDS011;10312;52.434;13.206;2022-07-01T02:44:21;16.05;;;13.13;;
20306;SDS011;10312;52.434;13.206;2022-07-01T02:46:47;15.52;;;13.70;;
20306;SDS011;10312;52.434;13.206;2022-07-01T02:49:14;15.80;;;13.93;;
20306;SDS011;10312;52.434;13.206;2022-07-01T02:51:41;17.55;;;13.20;;
20306;SDS011;10312;52.434;13.206;2022-07-01T02:54:08;16.42;;;13.52;;
20306;SDS011;10312;52.434;13.206;2022-07-01T02:56:35;17.88;;;14.63;;
20306;SDS011;10312;52.434;13.206;2022-07-01T02:59:02;19.00;;;14.75;;
20306;SDS011;10312;52.434;13.206;2022-07-01T03:01:28;18.73;;;15.15;;
20306;SDS011;10312;52.434;13.206;2022-07-01T03:03:55;17.75;;;14.65;;
20306;SDS011;10312;52.434;13.206;2022-07-01T03:06:22;17.95;;;14.15;;
20306;SDS011;10312;52.434;13.206;2022-07-01T03:08:49;18.45;;;15.68;;
20306;SDS011;10312;52.434;13.206;2022-07-01T03:11:16;17.65;;;15.57;;
20306;SDS011;10312;52.434;13.206;2022-07-01T03:13:42;19.92;;;15.43;;
20306;SDS011;10312;52.434;13.206;2022-07-01T03:16:09;17.92;;;15.40;;
20306;SDS011;10312;52.434;13.206;2022-07-01T03:18:36;20.80;;;16.33;;
20306;SDS011;10312;52.434;13.206;2022-07-01T03:21:03;20.45;;;16.80;;
20306;SDS011;10312;52.434;13.206;2022-07-01T03:23:30;19.05;;;16.30;;
20306;SDS011;10312;52.434;13.206;2022-07-01T03:25:56;20.77;;;16.27;;
20306;SDS011;10312;52.434;13.206;2022-07-01T03:28:23;18.10;;;15.25;;
20306;SDS011;10312;52.434;13.206;2022-07-01T03:30:50;21.90;;;16.55;;
20306;SDS011;10312;52.434;13.206;2022-07-01T03:33:18;20.63;;;16.80;;
20306;SDS011;10312;52.434;13.206;2022-07-01T03:35:45;20.83;;;16.83;;
20306;SDS011;10312;52.434;13.206;2022-07-01T03:38:12;20.38;;;16.73;;
20306;SDS011;10312;52.434;13.206;2022-07-01T03:40:39;20.73;;;16.40;;
20306;SDS011;10312;52.434;13.206;2022-07-01T03:43:06;19.77;;;16.10;;
20306;SDS011;10312;52.434;13.206;2022-07-01T03:45:33;20.38;;;16.17;;
20306;SDS011;10312;52.434;13.206;2022-07-01T03:48:00;20.80;;;16.55;;
20306;SDS011;10312;52.434;13.206;2022-07-01T03:50:27;21.90;;;17.27;;
20306;SDS011;10312;52.434;13.206;2022-07-01T03:52:54;22.13;;;17.60;;
20306;SDS011;10312;52.434;13.206;2022-07-01T03:55:41;24.48;;;17.58;;
20306;SDS011;10312;52.434;13.206;2022-07-01T03:58:08;22.95;;;18.60;;
20306;SDS011;10312;52.434;13.206;2022-07-01T04:00:35;20.98;;;17.45;;
20306;SDS011;10312;52.434;13.206;2022-07-01T04:03:03;22.30;;;18.27;;
20306;SDS011;10312;52.434;13.206;2022-07-01T04:05:35;22.85;;;18.98;;
20306;SDS011;10312;52.434;13.206;2022-07-01T04:08:03;24.05;;;18.90;;
20306;SDS011;10312;52.434;13.206;2022-07-01T04:10:31;24.20;;;18.77;;
20306;SDS011;10312;52.434;13.206;2022-07-01T04:13:01;21.08;;;17.83;;
20306;SDS011;10312;52.434;13.206;2022-07-01T04:15:48;22.70;;;17.70;;
20306;SDS011;10312;52.434;13.206;2022-07-01T04:18:16;24.80;;;18.65;;
20306;SDS011;10312;52.434;13.206;2022-07-01T04:20:42;21.85;;;18.05;;
20306;SDS011;10312;52.434;13.206;2022-07-01T04:23:29;22.42;;;18.02;;
20306;SDS011;10312;52.434;13.206;2022-07-01T04:25:56;23.23;;;18.17;;
20306;SDS011;10312;52.434;13.206;2022-07-01T04:28:43;24.65;;;18.60;;
20306;SDS011;10312;52.434;13.206;2022-07-01T04:31:10;23.45;;;17.95;;
20306;SDS011;10312;52.434;13.206;2022-07-01T04:33:37;22.15;;;17.70;;
20306;SDS011;10312;52.434;13.206;2022-07-01T04:36:07;28.42;;;18.38;;
20306;SDS011;10312;52.434;13.206;2022-07-01T04:38:34;26.27;;;19.90;;
20306;SDS011;10312;52.434;13.206;2022-07-01T04:41:01;23.52;;;18.92;;
20306;SDS011;10312;52.434;13.206;2022-07-01T04:43:46;24.52;;;19.98;;
20306;SDS011;10312;52.434;13.206;2022-07-01T04:46:13;23.65;;;19.08;;
20306;SDS011;10312;52.434;13.206;2022-07-01T04:48:40;22.05;;;18.20;;
20306;SDS011;10312;52.434;13.206;2022-07-01T04:51:08;23.52;;;18.98;;
20306;SDS011;10312;52.434;13.206;2022-07-01T04:53:35;23.42;;;18.42;;
20306;SDS011;10312;52.434;13.206;2022-07-01T04:56:02;22.95;;;19.17;;
20306;SDS011;10312;52.434;13.206;2022-07-01T04:58:29;21.73;;;18.48;;
20306;SDS011;10312;52.434;13.206;2022-07-01T05:00:56;21.85;;;18.08;;
20306;SDS011;10312;52.434;13.206;2022-07-01T05:03:22;21.48;;;18.55;;
20306;SDS011;10312;52.434;13.206;2022-07-01T05:05:49;22.23;;;18.35;;
20306;SDS011;10312;52.434;13.206;2022-07-01T05:08:16;23.92;;;18.25;;
20306;SDS011;10312;52.434;13.206;2022-07-01T05:10:43;25.70;;;19.27;;
20306;SDS011;10312;52.434;13.206;2022-07-01T05:13:10;24.20;;;18.58;;
20306;SDS011;10312;52.434;13.206;2022-07-01T05:15:36;24.42;;;19.17;;
20306;SDS011;10312;52.434;13.206;2022-07-01T05:18:03;23.40;;;17.95;;
20306;SDS011;10312;52.434;13.206;2022-07-01T05:20:49;22.05;;;17.92;;
20306;SDS011;10312;52.434;13.206;2022-07-01T05:23:35;21.85;;;17.58;;
20306;SDS011;10312;52.434;13.206;2022-07-01T05:26:03;25.55;;;17.80;;
20306;SDS011;10312;52.434;13.206;2022-07-01T05:28:30;22.38;;;17.75;;
20306;SDS011;10312;52.434;13.206;2022-07-01T05:30:57;19.38;;;16.63;;
20306;SDS011;10312;52.434;13.206;2022-07-01T05:33:24;21.77;;;18.00;;
20306;SDS011;10312;52.434;13.206;2022-07-01T05:35:53;20.85;;;16.88;;
20306;SDS011;10312;52.434;13.206;2022-07-01T05:38:20;21.70;;;17.70;;
20306;SDS011;10312;52.434;13.206;2022-07-01T05:40:47;20.45;;;17.42;;
20306;SDS011;10312;52.434;13.206;2022-07-01T05:43:14;21.63;;;17.38;;
20306;SDS011;10312;52.434;13.206;2022-07-01T05:45:41;22.13;;;16.77;;
20306;SDS011;10312;52.434;13.206;2022-07-01T05:48:08;20.52;;;17.38;;
20306;SDS011;10312;52.434;13.206;2022-07-01T05:50:35;20.13;;;16.83;;
20306;SDS011;10312;52.434;13.206;2022-07-01T05:53:02;20.10;;;17.25;;
20306;SDS011;10312;52.434;13.206;2022-07-01T05:55:29;22.77;;;18.25;;
20306;SDS011;10312;52.434;13.206;2022-07-01T05:57:56;23.23;;;17.27;;
20306;SDS011;10312;52.434;13.206;2022-07-01T06:00:22;20.17;;;16.90;;
20306;SDS011;10312;52.434;13.206;2022-07-01T06:02:49;21.55;;;17.38;;
20306;SDS011;10312;52.434;13.206;2022-07-01T06:05:16;21.20;;;16.85;;
20306;SDS011;10312;52.434;13.206;2022-07-01T06:07:43;21.10;;;17.05;;
20306;SDS011;10312;52.434;13.206;2022-07-01T06:10:10;24.40;;;18.25;;
20306;SDS011;10312;52.434;13.206;2022-07-01T06:12:38;20.40;;;17.52;;
20306;SDS011;10312;52.434;13.206;2022-07-01T06:15:06;22.38;;;17.52;;
20306;SDS011;10312;52.434;13.206;2022-07-01T06:17:34;22.98;;;18.40;;
20306;SDS011;10312;52.434;13.206;2022-07-01T06:20:02;23.27;;;18.05;;
20306;SDS011;10312;52.434;13.206;2022-07-01T06:22:32;21.00;;;17.42;;
20306;SDS011;10312;52.434;13.206;2022-07-01T06:24:59;22.67;;;17.90;;
20306;SDS011;10312;52.434;13.206;2022-07-01T06:27:27;20.75;;;17.58;;
20306;SDS011;10312;52.434;13.206;2022-07-01T06:29:53;20.35;;;16.92;;
20306;SDS011;10312;52.434;13.206;2022-07-01T06:32:20;23.33;;;17.15;;
20306;SDS011;10312;52.434;13.206;2022-07-01T06:34:47;22.35;;;18.42;;
20306;SDS011;10312;52.434;13.206;2022-07-01T06:37:18;18.90;;;15.60;;
20306;SDS011;10312;52.434;13.206;2022-07-01T06:39:46;19.27;;;17.25;;
20306;SDS011;10312;52.434;13.206;2022-07-01T06:42:13;21.70;;;16.77;;
20306;SDS011;10312;52.434;13.206;2022-07-01T06:44:42;21.70;;;17.67;;
20306;SDS011;10312;52.434;13.206;2022-07-01T06:47:09;23.65;;;16.88;;
20306;SDS011;10312;52.434;13.206;2022-07-01T06:49:36;22.85;;;17.08;;
20306;SDS011;10312;52.434;13.206;2022-07-01T06:52:07;20.48;;;15.80;;
20306;SDS011;10312;52.434;13.206;2022-07-01T06:54:34;20.15;;;16.60;;
20306;SDS011;10312;52.434;13.206;2022-07-01T06:57:04;20.42;;;16.08;;
20306;SDS011;10312;52.434;13.206;2022-07-01T06:59:31;22.08;;;16.25;;
20306;SDS011;10312;52.434;13.206;2022-07-01T07:01:59;17.83;;;14.93;;
20306;SDS011;10312;52.434;13.206;2022-07-01T07:04:25;17.35;;;15.27;;
20306;SDS011;10312;52.434;13.206;2022-07-01T07:07:12;18.30;;;14.20;;
20306;SDS011;10312;52.434;13.206;2022-07-01T07:09:39;17.08;;;13.95;;
20306;SDS011;10312;52.434;13.206;2022-07-01T07:12:06;15.32;;;12.88;;
20306;SDS011;10312;52.434;13.206;2022-07-01T07:14:33;16.45;;;12.27;;
20306;SDS011;10312;52.434;13.206;2022-07-01T07:17:00;12.85;;;11.00;;
20306;SDS011;10312;52.434;13.206;2022-07-01T07:19:27;13.40;;;9.98;;
20306;SDS011;10312;52.434;13.206;2022-07-01T07:21:54;11.85;;;10.13;;
20306;SDS011;10312;52.434;13.206;2022-07-01T07:24:22;13.70;;;10.98;;
20306;SDS011;10312;52.434;13.206;2022-07-01T07:26:49;14.52;;;9.98;;
20306;SDS011;10312;52.434;13.206;2022-07-01T07:29:16;11.55;;;10.18;;
20306;SDS011;10312;52.434;13.206;2022-07-01T07:31:42;11.93;;;9.55;;
20306;SDS011;10312;52.434;13.206;2022-07-01T07:34:09;10.88;;;9.65;;
20306;SDS011;10312;52.434;13.206;2022-07-01T07:36:36;13.50;;;10.13;;
20306;SDS011;10312;52.434;13.206;2022-07-01T07:39:03;11.32;;;8.98;;
20306;SDS011;10312;52.434;13.206;2022-07-01T07:41:31;11.48;;;9.05;;
20306;SDS011;10312;52.434;13.206;2022-07-01T07:43:58;11.35;;;8.52;;
20306;SDS011;10312;52.434;13.206;2022-07-01T07:46:24;10.75;;;7.90;;
20306;SDS011;10312;52.434;13.206;2022-07-01T07:48:52;10.32;;;6.43;;
20306;SDS011;10312;52.434;13.206;2022-07-01T07:51:18;9.50;;;5.40;;
20306;SDS011;10312;52.434;13.206;2022-07-01T07:53:51;8.63;;;5.50;;
20306;SDS011;10312;52.434;13.206;2022-07-01T07:56:18;6.53;;;5.78;;
20306;SDS011;10312;52.434;13.206;2022-07-01T07:58:45;7.25;;;5.70;;
20306;SDS011;10312;52.434;13.206;2022-07-01T08:01:12;7.15;;;6.03;;
20306;SDS011;10312;52.434;13.206;2022-07-01T08:03:40;10.55;;;6.20;;
20306;SDS011;10312;52.434;13.206;2022-07-01T08:06:07;7.45;;;5.82;;
20306;SDS011;10312;52.434;13.206;2022-07-01T08:08:34;7.85;;;6.15;;
20306;SDS011;10312;52.434;13.206;2022-07-01T08:11:01;7.63;;;6.07;;
20306;SDS011;10312;52.434;13.206;2022-07-01T08:13:28;12.30;;;6.03;;
20306;SDS011;10312;52.434;13.206;2022-07-01T08:15:55;6.45;;;5.72;;
20306;SDS011;10312;52.434;13.206;2022-07-01T08:18:22;8.05;;;5.90;;
20306;SDS011;10312;52.434;13.206;2022-07-01T08:20:49;10.35;;;5.70;;
20306;SDS011;10312;52.434;13.206;2022-07-01T08:23:19;6.93;;;5.20;;
20306;SDS011;10312;52.434;13.206;2022-07-01T08:25:47;6.63;;;4.32;;
20306;SDS011;10312;52.434;13.206;2022-07-01T08:28:14;6.32;;;4.07;;
20306;SDS011;10312;52.434;13.206;2022-07-01T08:30:42;6.45;;;3.33;;
20306;SDS011;10312;52.434;13.206;2022-07-01T08:33:10;3.90;;;2.75;;
20306;SDS011;10312;52.434;13.206;2022-07-01T08:35:37;3.80;;;2.67;;
20306;SDS011;10312;52.434;13.206;2022-07-01T08:38:04;4.13;;;2.47;;
20306;SDS011;10312;52.434;13.206;2022-07-01T08:40:33;2.97;;;2.65;;
20306;SDS011;10312;52.434;13.206;2022-07-01T08:43:01;5.75;;;2.50;;
20306;SDS011;10312;52.434;13.206;2022-07-01T08:45:30;3.80;;;2.47;;
20306;SDS011;10312;52.434;13.206;2022-07-01T08:47:58;4.35;;;2.45;;
20306;SDS011;10312;52.434;13.206;2022-07-01T08:50:33;4.25;;;3.17;;
20306;SDS011;10312;52.434;13.206;2022-07-01T08:53:01;4.97;;;2.28;;
20306;SDS011;10312;52.434;13.206;2022-07-01T08:55:28;2.85;;;1.95;;
20306;SDS011;10312;52.434;13.206;2022-07-01T08:57:55;6.57;;;2.08;;
20306;SDS011;10312;52.434;13.206;2022-07-01T09:00:22;2.28;;;1.98;;
20306;SDS011;10312;52.434;13.206;2022-07-01T09:02:56;4.22;;;2.03;;
20306;SDS011;10312;52.434;13.206;2022-07-01T09:05:25;2.35;;;1.98;;
20306;SDS011;10312;52.434;13.206;2022-07-01T09:07:56;3.13;;;1.50;;
20306;SDS011;10312;52.434;13.206;2022-07-01T09:10:30;5.45;;;1.70;;
20306;SDS011;10312;52.434;13.206;2022-07-01T09:13:07;3.63;;;1.40;;
20306;SDS011;10312;52.434;13.206;2022-07-01T09:15:35;1.42;;;1.20;;
20306;SDS011;10312;52.434;13.206;2022-07-01T09:18:04;3.88;;;1.20;;
20306;SDS011;10312;52.434;13.206;2022-07-01T09:20:36;1.48;;;1.08;;
20306;SDS011;10312;52.434;13.206;2022-07-01T09:23:05;1.52;;;0.90;;
20306;SDS011;10312;52.434;13.206;2022-07-01T09:25:51;3.08;;;1.00;;
20306;SDS011;10312;52.434;13.206;2022-07-01T09:28:25;1.88;;;1.10;;
20306;SDS011;10312;52.434;13.206;2022-07-01T09:30:53;1.90;;;1.40;;
20306;SDS011;10312;52.434;13.206;2022-07-01T09:33:22;1.77;;;1.10;;
20306;SDS011;10312;52.434;13.206;2022-07-01T09:35:53;1.88;;;1.30;;
20306;SDS011;10312;52.434;13.206;2022-07-01T09:38:21;2.40;;;1.20;;
20306;SDS011;10312;52.434;13.206;2022-07-01T09:43:33;3.03;;;1.40;;
20306;SDS011;10312;52.434;13.206;2022-07-01T09:46:03;1.63;;;1.30;;
20306;SDS011;10312;52.434;13.206;2022-07-01T09:51:02;1.73;;;1.40;;
20306;SDS011;10312;52.434;13.206;2022-07-01T09:53:30;2.38;;;1.63;;
20306;SDS011;10312;52.434;13.206;2022-07-01T09:55:57;2.75;;;1.38;;
20306;SDS011;10312;52.434;13.206;2022-07-01T09:58:25;2.15;;;1.33;;
20306;SDS011;10312;52.434;13.206;2022-07-01T10:00:52;1.90;;;1.50;;
20306;SDS011;10312;52.434;13.206;2022-07-01T10:03:20;1.95;;;1.50;;
20306;SDS011;10312;52.434;13.206;2022-07-01T10:05:54;1.38;;;1.20;;
20306;SDS011;10312;52.434;13.206;2022-07-01T10:14:04;2.65;;;1.40;;
20306;SDS011;10312;52.434;13.206;2022-07-01T10:16:34;1.85;;;1.38;;
20306;SDS011;10312;52.434;13.206;2022-07-01T10:19:06;1.88;;;1.30;;
20306;SDS011;10312;52.434;13.206;2022-07-01T10:21:56;1.45;;;1.05;;
20306;SDS011;10312;52.434;13.206;2022-07-01T10:24:26;2.35;;;1.00;;
20306;SDS011;10312;52.434;13.206;2022-07-01T10:27:00;1.05;;;0.70;;
20306;SDS011;10312;52.434;13.206;2022-07-01T10:37:09;3.40;;;0.93;;
20306;SDS011;10312;52.434;13.206;2022-07-01T10:39:57;4.85;;;1.05;;
20306;SDS011;10312;52.434;13.206;2022-07-01T10:42:34;3.40;;;1.10;;
20306;SDS011;10312;52.434;13.206;2022-07-01T10:45:44;4.45;;;1.10;;
20306;SDS011;10312;52.434;13.206;2022-07-01T10:48:22;5.38;;;1.50;;
20306;SDS011;10312;52.434;13.206;2022-07-01T10:50:50;5.25;;;1.50;;
20306;SDS011;10312;52.434;13.206;2022-07-01T10:53:18;3.42;;;0.88;;
20306;SDS011;10312;52.434;13.206;2022-07-01T10:55:46;3.55;;;1.00;;
20306;SDS011;10312;52.434;13.206;2022-07-01T10:58:18;3.13;;;1.33;;
20306;SDS011;10312;52.434;13.206;2022-07-01T11:00:47;2.90;;;1.00;;
20306;SDS011;10312;52.434;13.206;2022-07-01T11:03:18;3.33;;;1.00;;
20306;SDS011;10312;52.434;13.206;2022-07-01T11:05:47;1.35;;;0.98;;
20306;SDS011;10312;52.434;13.206;2022-07-01T11:08:16;2.83;;;1.00;;
20306;SDS011;10312;52.434;13.206;2022-07-01T11:10:54;1.30;;;0.90;;
20306;SDS011;10312;52.434;13.206;2022-07-01T11:13:24;4.18;;;1.73;;
20306;SDS011;10312;52.434;13.206;2022-07-01T11:15:52;2.83;;;1.52;;
20306;SDS011;10312;52.434;13.206;2022-07-01T11:18:19;5.13;;;1.35;;
20306;SDS011;10312;52.434;13.206;2022-07-01T11:20:46;4.38;;;1.58;;
20306;SDS011;10312;52.434;13.206;2022-07-01T11:23:13;4.05;;;1.67;;
20306;SDS011;10312;52.434;13.206;2022-07-01T11:25:40;5.63;;;1.70;;
20306;SDS011;10312;52.434;13.206;2022-07-01T11:28:07;5.97;;;1.45;;
20306;SDS011;10312;52.434;13.206;2022-07-01T11:30:36;3.65;;;1.67;;
20306;SDS011;10312;52.434;13.206;2022-07-01T11:33:03;2.58;;;1.35;;
20306;SDS011;10312;52.434;13.206;2022-07-01T11:35:30;6.15;;;2.53;;
20306;SDS011;10312;52.434;13.206;2022-07-01T11:38:20;2.22;;;1.30;;
20306;SDS011;10312;52.434;13.206;2022-07-01T11:41:07;1.75;;;1.40;;
20306;SDS011;10312;52.434;13.206;2022-07-01T11:43:44;5.63;;;1.70;;
20306;SDS011;10312;52.434;13.206;2022-07-01T11:46:11;2.65;;;1.75;;
20306;SDS011;10312;52.434;13.206;2022-07-01T11:48:42;2.45;;;1.75;;
20306;SDS011;10312;52.434;13.206;2022-07-01T11:51:11;2.42;;;1.73;;
20306;SDS011;10312;52.434;13.206;2022-07-01T11:53:46;3.00;;;1.70;;
20306;SDS011;10312;52.434;13.206;2022-07-01T11:56:16;3.83;;;2.30;;
20306;SDS011;10312;52.434;13.206;2022-07-01T12:01:19;3.00;;;2.42;;
20306;SDS011;10312;52.434;13.206;2022-07-01T12:03:57;2.28;;;2.05;;
20306;SDS011;10312;52.434;13.206;2022-07-01T12:06:26;2.30;;;2.10;;
20306;SDS011;10312;52.434;13.206;2022-07-01T12:08:54;3.15;;;2.30;;
20306;SDS011;10312;52.434;13.206;2022-07-01T12:11:24;2.67;;;2.25;;
20306;SDS011;10312;52.434;13.206;2022-07-01T12:13:52;3.20;;;2.25;;
20306;SDS011;10312;52.434;13.206;2022-07-01T12:16:20;3.15;;;2.80;;
20306;SDS011;10312;52.434;13.206;2022-07-01T12:19:00;4.28;;;3.30;;
20306;SDS011;10312;52.434;13.206;2022-07-01T12:21:28;3.85;;;2.88;;
20306;SDS011;10312;52.434;13.206;2022-07-01T12:24:03;4.70;;;2.47;;
20306;SDS011;10312;52.434;13.206;2022-07-01T12:26:31;2.92;;;2.30;;
20306;SDS011;10312;52.434;13.206;2022-07-01T12:28:58;3.25;;;2.38;;
20306;SDS011;10312;52.434;13.206;2022-07-01T12:31:25;3.03;;;2.58;;
20306;SDS011;10312;52.434;13.206;2022-07-01T12:33:52;3.63;;;2.67;;
20306;SDS011;10312;52.434;13.206;2022-07-01T12:36:19;3.90;;;2.58;;
20306;SDS011;10312;52.434;13.206;2022-07-01T12:38:46;4.40;;;2.80;;
20306;SDS011;10312;52.434;13.206;2022-07-01T12:44:23;3.53;;;2.88;;
20306;SDS011;10312;52.434;13.206;2022-07-01T12:46:51;5.32;;;2.90;;
20306;SDS011;10312;52.434;13.206;2022-07-01T12:49:19;3.60;;;2.88;;
20306;SDS011;10312;52.434;13.206;2022-07-01T12:51:51;3.80;;;3.17;;
20306;SDS011;10312;52.434;13.206;2022-07-01T12:54:27;4.28;;;3.10;;
20306;SDS011;10312;52.434;13.206;2022-07-01T12:56:58;3.72;;;3.08;;
20306;SDS011;10312;52.434;13.206;2022-07-01T12:59:26;4.15;;;3.10;;
20306;SDS011;10312;52.434;13.206;2022-07-01T13:01:53;4.05;;;3.15;;
20306;SDS011;10312;52.434;13.206;2022-07-01T13:04:25;4.30;;;2.97;;
20306;SDS011;10312;52.434;13.206;2022-07-01T13:06:52;4.43;;;3.00;;
20306;SDS011;10312;52.434;13.206;2022-07-01T13:09:19;4.10;;;3.17;;
20306;SDS011;10312;52.434;13.206;2022-07-01T13:11:46;4.50;;;2.88;;
20306;SDS011;10312;52.434;13.206;2022-07-01T13:14:13;3.10;;;2.60;;
20306;SDS011;10312;52.434;13.206;2022-07-01T13:16:40;3.10;;;2.50;;
20306;SDS011;10312;52.434;13.206;2022-07-01T13:19:07;2.97;;;2.28;;
20306;SDS011;10312;52.434;13.206;2022-07-01T13:21:34;4.00;;;2.55;;
20306;SDS011;10312;52.434;13.206;2022-07-01T13:24:01;3.08;;;2.38;;
20306;SDS011;10312;52.434;13.206;2022-07-01T13:26:48;2.90;;;2.38;;
20306;SDS011;10312;52.434;13.206;2022-07-01T13:29:15;3.63;;;2.53;;
20306;SDS011;10312;52.434;13.206;2022-07-01T13:31:42;2.63;;;2.38;;
20306;SDS011;10312;52.434;13.206;2022-07-01T13:34:08;3.33;;;2.72;;
20306;SDS011;10312;52.434;13.206;2022-07-01T13:36:35;3.67;;;2.80;;
20306;SDS011;10312;52.434;13.206;2022-07-01T13:39:02;4.40;;;2.60;;
20306;SDS011;10312;52.434;13.206;2022-07-01T13:41:29;4.78;;;2.60;;
20306;SDS011;10312;52.434;13.206;2022-07-01T13:43:56;3.05;;;2.58;;
20306;SDS011;10312;52.434;13.206;2022-07-01T13:46:23;4.15;;;2.55;;
20306;SDS011;10312;52.434;13.206;2022-07-01T13:48:50;3.25;;;2.50;;
20306;SDS011;10312;52.434;13.206;2022-07-01T13:51:17;3.92;;;2.90;;
20306;SDS011;10312;52.434;13.206;2022-07-01T13:53:43;4.07;;;2.90;;
20306;SDS011;10312;52.434;13.206;2022-07-01T13:56:10;4.45;;;3.20;;
20306;SDS011;10312;52.434;13.206;2022-07-01T13:58:37;5.80;;;3.35;;
20306;SDS011;10312;52.434;13.206;2022-07-01T14:01:04;4.63;;;3.40;;
20306;SDS011;10312;52.434;13.206;2022-07-01T14:03:31;4.80;;;3.75;;
20306;SDS011;10312;52.434;13.206;2022-07-01T14:05:58;6.28;;;4.40;;
20306;SDS011;10312;52.434;13.206;2022-07-01T14:08:25;5.15;;;3.72;;
20306;SDS011;10312;52.434;13.206;2022-07-01T14:10:53;4.82;;;3.20;;
20306;SDS011;10312;52.434;13.206;2022-07-01T14:13:21;7.18;;;3.42;;
20306;SDS011;10312;52.434;13.206;2022-07-01T14:15:49;7.55;;;4.25;;
20306;SDS011;10312;52.434;13.206;2022-07-01T14:18:16;4.93;;;3.65;;
20306;SDS011;10312;52.434;13.206;2022-07-01T14:20:42;7.35;;;4.20;;
20306;SDS011;10312;52.434;13.206;2022-07-01T14:23:12;5.40;;;4.10;;
20306;SDS011;10312;52.434;13.206;2022-07-01T14:25:39;5.20;;;3.60;;
20306;SDS011;10312;52.434;13.206;2022-07-01T14:28:06;7.30;;;3.70;;
20306;SDS011;10312;52.434;13.206;2022-07-01T14:30:34;6.38;;;3.20;;
20306;SDS011;10312;52.434;13.206;2022-07-01T14:33:01;3.53;;;2.90;;
20306;SDS011;10312;52.434;13.206;2022-07-01T14:35:28;5.50;;;2.90;;
20306;SDS011;10312;52.434;13.206;2022-07-01T14:37:55;3.65;;;3.15;;
20306;SDS011;10312;52.434;13.206;2022-07-01T14:40:22;5.07;;;3.40;;
20306;SDS011;10312;52.434;13.206;2022-07-01T14:42:50;5.18;;;3.83;;
20306;SDS011;10312;52.434;13.206;2022-07-01T14:45:16;4.35;;;3.28;;
20306;SDS011;10312;52.434;13.206;2022-07-01T14:47:43;6.15;;;4.07;;
20306;SDS011;10312;52.434;13.206;2022-07-01T14:50:14;6.28;;;4.38;;
20306;SDS011;10312;52.434;13.206;2022-07-01T14:52:41;5.72;;;4.40;;
20306;SDS011;10312;52.434;13.206;2022-07-01T14:55:08;7.72;;;5.40;;